sensor_id;sensor_type;location;lat;lon;timestamp;P1;durP1;ratioP1;P2;durP2;ratioP2
15792;SDS011;7999;51.208;4.244;2024-03-08T00:01:17;64.82;;;41.35;;
15792;SDS011;7999;51.208;4.244;2024-03-08T00:03:44;61.92;;;41.38;;
15792;SDS011;7999;51.208;4.244;2024-03-08T00:06:11;59.83;;;39.47;;
15792;SDS011;7999;51.208;4.244;2024-03-08T00:08:38;63.85;;;41.08;;
15792;SDS011;7999;51.208;4.244;2024-03-08T00:11:05;62.70;;;41.73;;
15792;SDS011;7999;51.208;4.244;2024-03-08T00:13:33;61.70;;;40.43;;
15792;SDS011;7999;51.208;4.244;2024-03-08T00:16:02;61.40;;;41.70;;
15792;SDS011;7999;51.208;4.244;2024-03-08T00:18:29;59.27;;;39.90;;
15792;SDS011;7999;51.208;4.244;2024-03-08T00:20:56;58.80;;;39.53;;
15792;SDS011;7999;51.208;4.244;2024-03-08T00:23:23;62.45;;;42.67;;
15792;SDS011;7999;51.208;4.244;2024-03-08T00:25:50;59.58;;;39.67;;
15792;SDS011;7999;51.208;4.244;2024-03-08T00:28:17;62.58;;;40.42;;
15792;SDS011;7999;51.208;4.244;2024-03-08T00:30:44;56.67;;;37.67;;
15792;SDS011;7999;51.208;4.244;2024-03-08T00:33:13;59.67;;;40.60;;
15792;SDS011;7999;51.208;4.244;2024-03-08T00:35:40;61.40;;;40.00;;
15792;SDS011;7999;51.208;4.244;2024-03-08T00:38:07;56.53;;;39.73;;
15792;SDS011;7999;51.208;4.244;2024-03-08T00:40:34;56.83;;;40.22;;
15792;SDS011;7999;51.208;4.244;2024-03-08T00:43:01;62.22;;;41.78;;
15792;SDS011;7999;51.208;4.244;2024-03-08T00:45:29;60.50;;;40.90;;
15792;SDS011;7999;51.208;4.244;2024-03-08T00:47:56;57.13;;;39.47;;
15792;SDS011;7999;51.208;4.244;2024-03-08T00:50:24;57.65;;;38.00;;
15792;SDS011;7999;51.208;4.244;2024-03-08T00:52:51;58.38;;;38.00;;
15792;SDS011;7999;51.208;4.244;2024-03-08T00:55:18;57.95;;;39.35;;
15792;SDS011;7999;51.208;4.244;2024-03-08T00:57:45;57.33;;;39.17;;
15792;SDS011;7999;51.208;4.244;2024-03-08T01:00:16;58.23;;;41.37;;
15792;SDS011;7999;51.208;4.244;2024-03-08T01:02:43;59.28;;;41.40;;
15792;SDS011;7999;51.208;4.244;2024-03-08T01:05:15;53.08;;;37.47;;
15792;SDS011;7999;51.208;4.244;2024-03-08T01:08:33;57.50;;;39.75;;
15792;SDS011;7999;51.208;4.244;2024-03-08T01:11:59;50.45;;;36.58;;
15792;SDS011;7999;51.208;4.244;2024-03-08T01:14:32;55.42;;;39.42;;
15792;SDS011;7999;51.208;4.244;2024-03-08T01:17:47;56.38;;;39.60;;
15792;SDS011;7999;51.208;4.244;2024-03-08T01:20:15;54.83;;;38.58;;
15792;SDS011;7999;51.208;4.244;2024-03-08T01:22:43;55.65;;;40.38;;
15792;SDS011;7999;51.208;4.244;2024-03-08T01:25:11;54.55;;;39.15;;
15792;SDS011;7999;51.208;4.244;2024-03-08T01:27:49;54.00;;;39.72;;
15792;SDS011;7999;51.208;4.244;2024-03-08T01:31:15;54.67;;;38.87;;
15792;SDS011;7999;51.208;4.244;2024-03-08T01:34:41;53.80;;;39.42;;
15792;SDS011;7999;51.208;4.244;2024-03-08T01:38:07;51.70;;;37.83;;
15792;SDS011;7999;51.208;4.244;2024-03-08T01:41:34;51.42;;;38.67;;
15792;SDS011;7999;51.208;4.244;2024-03-08T01:44:01;50.60;;;37.58;;
15792;SDS011;7999;51.208;4.244;2024-03-08T01:46:29;54.53;;;39.20;;
15792;SDS011;7999;51.208;4.244;2024-03-08T01:48:56;54.73;;;41.13;;
15792;SDS011;7999;51.208;4.244;2024-03-08T01:51:23;54.33;;;40.30;;
15792;SDS011;7999;51.208;4.244;2024-03-08T01:53:50;50.50;;;38.23;;
15792;SDS011;7999;51.208;4.244;2024-03-08T01:56:18;54.05;;;39.63;;
15792;SDS011;7999;51.208;4.244;2024-03-08T01:58:47;49.27;;;39.03;;
15792;SDS011;7999;51.208;4.244;2024-03-08T02:01:14;49.58;;;37.55;;
15792;SDS011;7999;51.208;4.244;2024-03-08T02:03:42;53.35;;;40.08;;
15792;SDS011;7999;51.208;4.244;2024-03-08T02:06:11;49.20;;;38.42;;
15792;SDS011;7999;51.208;4.244;2024-03-08T02:08:41;50.92;;;37.53;;
15792;SDS011;7999;51.208;4.244;2024-03-08T02:11:10;50.83;;;40.25;;
15792;SDS011;7999;51.208;4.244;2024-03-08T02:13:37;49.95;;;38.28;;
15792;SDS011;7999;51.208;4.244;2024-03-08T02:16:06;51.10;;;38.15;;
15792;SDS011;7999;51.208;4.244;2024-03-08T02:18:33;52.80;;;42.37;;
15792;SDS011;7999;51.208;4.244;2024-03-08T02:21:03;53.63;;;39.17;;
15792;SDS011;7999;51.208;4.244;2024-03-08T02:23:31;48.92;;;38.10;;
15792;SDS011;7999;51.208;4.244;2024-03-08T02:25:59;54.05;;;41.15;;
15792;SDS011;7999;51.208;4.244;2024-03-08T02:28:26;50.63;;;38.47;;
15792;SDS011;7999;51.208;4.244;2024-03-08T02:30:53;50.92;;;40.03;;
15792;SDS011;7999;51.208;4.244;2024-03-08T02:33:21;49.73;;;38.57;;
15792;SDS011;7999;51.208;4.244;2024-03-08T02:35:49;49.53;;;36.65;;
15792;SDS011;7999;51.208;4.244;2024-03-08T02:38:18;49.87;;;40.60;;
15792;SDS011;7999;51.208;4.244;2024-03-08T02:40:46;49.38;;;38.70;;
15792;SDS011;7999;51.208;4.244;2024-03-08T02:43:15;49.85;;;40.03;;
15792;SDS011;7999;51.208;4.244;2024-03-08T02:45:43;51.33;;;39.03;;
15792;SDS011;7999;51.208;4.244;2024-03-08T02:48:10;50.42;;;39.90;;
15792;SDS011;7999;51.208;4.244;2024-03-08T02:50:38;50.63;;;40.10;;
15792;SDS011;7999;51.208;4.244;2024-03-08T02:53:07;49.95;;;41.53;;
15792;SDS011;7999;51.208;4.244;2024-03-08T02:55:36;47.58;;;39.15;;
15792;SDS011;7999;51.208;4.244;2024-03-08T02:58:04;50.20;;;39.47;;
15792;SDS011;7999;51.208;4.244;2024-03-08T03:00:33;50.40;;;40.47;;
15792;SDS011;7999;51.208;4.244;2024-03-08T03:03:01;47.88;;;37.65;;
15792;SDS011;7999;51.208;4.244;2024-03-08T03:05:28;49.30;;;39.80;;
15792;SDS011;7999;51.208;4.244;2024-03-08T03:07:56;48.03;;;39.17;;
15792;SDS011;7999;51.208;4.244;2024-03-08T03:10:24;48.23;;;37.33;;
15792;SDS011;7999;51.208;4.244;2024-03-08T03:12:52;46.97;;;37.45;;
15792;SDS011;7999;51.208;4.244;2024-03-08T03:15:19;49.05;;;39.15;;
15792;SDS011;7999;51.208;4.244;2024-03-08T03:17:47;46.13;;;36.85;;
15792;SDS011;7999;51.208;4.244;2024-03-08T03:20:16;44.08;;;37.03;;
15792;SDS011;7999;51.208;4.244;2024-03-08T03:22:48;46.70;;;38.00;;
15792;SDS011;7999;51.208;4.244;2024-03-08T03:25:18;46.60;;;38.20;;
15792;SDS011;7999;51.208;4.244;2024-03-08T03:27:50;45.13;;;36.53;;
15792;SDS011;7999;51.208;4.244;2024-03-08T03:30:24;47.17;;;38.35;;
15792;SDS011;7999;51.208;4.244;2024-03-08T03:32:52;45.80;;;36.38;;
15792;SDS011;7999;51.208;4.244;2024-03-08T03:35:21;45.73;;;38.53;;
15792;SDS011;7999;51.208;4.244;2024-03-08T03:37:48;45.08;;;37.28;;
15792;SDS011;7999;51.208;4.244;2024-03-08T03:40:27;45.53;;;36.90;;
15792;SDS011;7999;51.208;4.244;2024-03-08T03:42:55;47.63;;;38.22;;
15792;SDS011;7999;51.208;4.244;2024-03-08T03:45:22;47.85;;;39.72;;
15792;SDS011;7999;51.208;4.244;2024-03-08T03:47:49;46.08;;;36.88;;
15792;SDS011;7999;51.208;4.244;2024-03-08T03:50:17;44.50;;;37.45;;
15792;SDS011;7999;51.208;4.244;2024-03-08T03:52:45;44.70;;;35.38;;
15792;SDS011;7999;51.208;4.244;2024-03-08T03:55:13;45.75;;;36.70;;
15792;SDS011;7999;51.208;4.244;2024-03-08T03:57:40;46.43;;;36.77;;
15792;SDS011;7999;51.208;4.244;2024-03-08T04:00:10;45.55;;;35.72;;
15792;SDS011;7999;51.208;4.244;2024-03-08T04:02:40;44.63;;;35.72;;
15792;SDS011;7999;51.208;4.244;2024-03-08T04:05:08;45.50;;;37.22;;
15792;SDS011;7999;51.208;4.244;2024-03-08T04:07:36;43.83;;;36.92;;
15792;SDS011;7999;51.208;4.244;2024-03-08T04:10:04;45.55;;;36.58;;
15792;SDS011;7999;51.208;4.244;2024-03-08T04:12:32;45.45;;;35.97;;
15792;SDS011;7999;51.208;4.244;2024-03-08T04:15:00;44.10;;;35.45;;
15792;SDS011;7999;51.208;4.244;2024-03-08T04:17:28;43.35;;;35.05;;
15792;SDS011;7999;51.208;4.244;2024-03-08T04:19:55;46.03;;;36.17;;
15792;SDS011;7999;51.208;4.244;2024-03-08T04:22:22;45.93;;;36.70;;
15792;SDS011;7999;51.208;4.244;2024-03-08T04:24:49;43.80;;;35.60;;
15792;SDS011;7999;51.208;4.244;2024-03-08T04:27:16;47.40;;;35.00;;
15792;SDS011;7999;51.208;4.244;2024-03-08T04:29:44;46.50;;;37.25;;
15792;SDS011;7999;51.208;4.244;2024-03-08T04:32:11;45.80;;;35.95;;
15792;SDS011;7999;51.208;4.244;2024-03-08T04:34:40;45.15;;;36.30;;
15792;SDS011;7999;51.208;4.244;2024-03-08T04:37:07;45.60;;;36.20;;
15792;SDS011;7999;51.208;4.244;2024-03-08T04:39:36;44.80;;;34.30;;
15792;SDS011;7999;51.208;4.244;2024-03-08T04:42:11;46.00;;;36.72;;
15792;SDS011;7999;51.208;4.244;2024-03-08T04:44:40;44.25;;;35.95;;
15792;SDS011;7999;51.208;4.244;2024-03-08T04:51:07;44.70;;;35.07;;
15792;SDS011;7999;51.208;4.244;2024-03-08T04:53:35;46.00;;;34.75;;
15792;SDS011;7999;51.208;4.244;2024-03-08T04:56:02;45.53;;;36.00;;
15792;SDS011;7999;51.208;4.244;2024-03-08T04:58:31;47.00;;;35.47;;
15792;SDS011;7999;51.208;4.244;2024-03-08T05:00:59;46.10;;;34.57;;
15792;SDS011;7999;51.208;4.244;2024-03-08T05:03:27;45.37;;;36.57;;
15792;SDS011;7999;51.208;4.244;2024-03-08T05:05:54;44.83;;;36.13;;
15792;SDS011;7999;51.208;4.244;2024-03-08T05:11:16;41.22;;;31.33;;
15792;SDS011;7999;51.208;4.244;2024-03-08T05:13:43;48.65;;;36.63;;
15792;SDS011;7999;51.208;4.244;2024-03-08T05:16:10;45.00;;;34.30;;
15792;SDS011;7999;51.208;4.244;2024-03-08T05:18:38;47.05;;;34.80;;
15792;SDS011;7999;51.208;4.244;2024-03-08T05:21:17;43.17;;;34.00;;
15792;SDS011;7999;51.208;4.244;2024-03-08T05:23:47;46.35;;;35.45;;
15792;SDS011;7999;51.208;4.244;2024-03-08T05:26:16;48.75;;;38.13;;
15792;SDS011;7999;51.208;4.244;2024-03-08T05:28:49;43.83;;;35.53;;
15792;SDS011;7999;51.208;4.244;2024-03-08T05:31:18;47.45;;;36.53;;
15792;SDS011;7999;51.208;4.244;2024-03-08T05:33:47;48.22;;;35.63;;
15792;SDS011;7999;51.208;4.244;2024-03-08T05:36:14;45.60;;;35.97;;
15792;SDS011;7999;51.208;4.244;2024-03-08T05:38:42;45.97;;;34.00;;
15792;SDS011;7999;51.208;4.244;2024-03-08T05:41:10;47.28;;;36.40;;
15792;SDS011;7999;51.208;4.244;2024-03-08T05:43:38;46.25;;;35.70;;
15792;SDS011;7999;51.208;4.244;2024-03-08T05:46:07;47.42;;;33.17;;
15792;SDS011;7999;51.208;4.244;2024-03-08T05:48:34;47.55;;;35.35;;
15792;SDS011;7999;51.208;4.244;2024-03-08T05:51:01;47.13;;;35.42;;
15792;SDS011;7999;51.208;4.244;2024-03-08T05:53:28;46.53;;;35.42;;
15792;SDS011;7999;51.208;4.244;2024-03-08T05:55:57;48.35;;;35.97;;
15792;SDS011;7999;51.208;4.244;2024-03-08T05:58:26;47.60;;;34.60;;
15792;SDS011;7999;51.208;4.244;2024-03-08T06:00:55;47.20;;;34.40;;
15792;SDS011;7999;51.208;4.244;2024-03-08T06:03:22;49.83;;;36.23;;
15792;SDS011;7999;51.208;4.244;2024-03-08T06:05:50;45.08;;;36.00;;
15792;SDS011;7999;51.208;4.244;2024-03-08T06:08:17;46.08;;;34.05;;
15792;SDS011;7999;51.208;4.244;2024-03-08T06:10:45;46.53;;;33.88;;
15792;SDS011;7999;51.208;4.244;2024-03-08T06:13:16;48.20;;;35.07;;
15792;SDS011;7999;51.208;4.244;2024-03-08T06:15:44;46.47;;;35.50;;
15792;SDS011;7999;51.208;4.244;2024-03-08T06:18:11;48.08;;;36.53;;
15792;SDS011;7999;51.208;4.244;2024-03-08T06:20:39;46.92;;;33.95;;
15792;SDS011;7999;51.208;4.244;2024-03-08T06:23:09;49.38;;;36.97;;
15792;SDS011;7999;51.208;4.244;2024-03-08T06:25:36;48.53;;;35.85;;
15792;SDS011;7999;51.208;4.244;2024-03-08T06:28:03;44.10;;;32.75;;
15792;SDS011;7999;51.208;4.244;2024-03-08T06:30:29;48.92;;;36.20;;
15792;SDS011;7999;51.208;4.244;2024-03-08T06:32:58;46.70;;;34.47;;
15792;SDS011;7999;51.208;4.244;2024-03-08T06:35:28;47.87;;;35.07;;
15792;SDS011;7999;51.208;4.244;2024-03-08T06:38:28;47.28;;;34.42;;
15792;SDS011;7999;51.208;4.244;2024-03-08T06:40:55;50.70;;;35.78;;
15792;SDS011;7999;51.208;4.244;2024-03-08T06:43:22;47.08;;;34.45;;
15792;SDS011;7999;51.208;4.244;2024-03-08T06:45:55;47.92;;;34.70;;
15792;SDS011;7999;51.208;4.244;2024-03-08T06:48:23;46.40;;;33.55;;
15792;SDS011;7999;51.208;4.244;2024-03-08T06:50:50;47.05;;;33.22;;
15792;SDS011;7999;51.208;4.244;2024-03-08T06:53:18;47.90;;;34.60;;
15792;SDS011;7999;51.208;4.244;2024-03-08T06:55:45;47.17;;;34.92;;
15792;SDS011;7999;51.208;4.244;2024-03-08T06:58:12;47.25;;;35.92;;
15792;SDS011;7999;51.208;4.244;2024-03-08T07:00:39;48.40;;;34.43;;
15792;SDS011;7999;51.208;4.244;2024-03-08T07:03:07;47.65;;;34.90;;
15792;SDS011;7999;51.208;4.244;2024-03-08T07:05:38;44.90;;;34.92;;
15792;SDS011;7999;51.208;4.244;2024-03-08T07:08:06;45.33;;;32.40;;
15792;SDS011;7999;51.208;4.244;2024-03-08T07:10:33;45.88;;;33.42;;
15792;SDS011;7999;51.208;4.244;2024-03-08T07:13:00;45.40;;;35.45;;
15792;SDS011;7999;51.208;4.244;2024-03-08T07:15:28;45.93;;;34.37;;
15792;SDS011;7999;51.208;4.244;2024-03-08T07:17:56;45.40;;;34.80;;
15792;SDS011;7999;51.208;4.244;2024-03-08T07:20:23;44.28;;;34.13;;
15792;SDS011;7999;51.208;4.244;2024-03-08T07:22:51;42.72;;;36.13;;
15792;SDS011;7999;51.208;4.244;2024-03-08T07:25:19;44.75;;;37.60;;
15792;SDS011;7999;51.208;4.244;2024-03-08T07:27:46;46.08;;;36.70;;
15792;SDS011;7999;51.208;4.244;2024-03-08T07:30:14;45.40;;;37.10;;
15792;SDS011;7999;51.208;4.244;2024-03-08T07:33:04;43.22;;;35.58;;
15792;SDS011;7999;51.208;4.244;2024-03-08T07:35:32;46.30;;;38.10;;
15792;SDS011;7999;51.208;4.244;2024-03-08T07:38:04;43.38;;;36.80;;
15792;SDS011;7999;51.208;4.244;2024-03-08T07:40:31;45.13;;;35.95;;
15792;SDS011;7999;51.208;4.244;2024-03-08T07:42:59;41.33;;;36.40;;
15792;SDS011;7999;51.208;4.244;2024-03-08T07:45:39;42.87;;;34.97;;
15792;SDS011;7999;51.208;4.244;2024-03-08T07:48:07;42.43;;;36.20;;
15792;SDS011;7999;51.208;4.244;2024-03-08T07:50:35;41.75;;;35.45;;
15792;SDS011;7999;51.208;4.244;2024-03-08T07:53:04;44.75;;;37.80;;
15792;SDS011;7999;51.208;4.244;2024-03-08T07:55:32;44.75;;;37.08;;
15792;SDS011;7999;51.208;4.244;2024-03-08T07:58:00;47.23;;;40.10;;
15792;SDS011;7999;51.208;4.244;2024-03-08T08:00:28;44.22;;;37.22;;
15792;SDS011;7999;51.208;4.244;2024-03-08T08:02:56;42.10;;;35.35;;
15792;SDS011;7999;51.208;4.244;2024-03-08T08:05:24;41.97;;;37.13;;
15792;SDS011;7999;51.208;4.244;2024-03-08T08:07:51;43.47;;;38.10;;
15792;SDS011;7999;51.208;4.244;2024-03-08T08:10:20;42.63;;;37.67;;
15792;SDS011;7999;51.208;4.244;2024-03-08T08:12:47;42.72;;;37.95;;
15792;SDS011;7999;51.208;4.244;2024-03-08T08:15:15;40.35;;;35.95;;
15792;SDS011;7999;51.208;4.244;2024-03-08T08:17:43;40.97;;;36.00;;
15792;SDS011;7999;51.208;4.244;2024-03-08T08:20:10;41.67;;;37.13;;
15792;SDS011;7999;51.208;4.244;2024-03-08T08:22:38;43.63;;;37.53;;
15792;SDS011;7999;51.208;4.244;2024-03-08T08:25:05;42.00;;;37.60;;
15792;SDS011;7999;51.208;4.244;2024-03-08T08:27:34;42.77;;;38.07;;
15792;SDS011;7999;51.208;4.244;2024-03-08T08:30:03;41.55;;;37.03;;
15792;SDS011;7999;51.208;4.244;2024-03-08T08:32:33;43.65;;;39.05;;
15792;SDS011;7999;51.208;4.244;2024-03-08T08:35:01;40.43;;;35.83;;
15792;SDS011;7999;51.208;4.244;2024-03-08T08:37:30;43.43;;;38.50;;
15792;SDS011;7999;51.208;4.244;2024-03-08T08:39:58;44.60;;;39.90;;
15792;SDS011;7999;51.208;4.244;2024-03-08T08:42:30;42.50;;;37.88;;
15792;SDS011;7999;51.208;4.244;2024-03-08T08:45:00;40.85;;;36.60;;
15792;SDS011;7999;51.208;4.244;2024-03-08T08:47:33;41.97;;;36.70;;
15792;SDS011;7999;51.208;4.244;2024-03-08T08:50:01;42.15;;;37.70;;
15792;SDS011;7999;51.208;4.244;2024-03-08T08:52:29;40.22;;;35.85;;
15792;SDS011;7999;51.208;4.244;2024-03-08T08:54:57;39.60;;;35.33;;
15792;SDS011;7999;51.208;4.244;2024-03-08T08:57:26;41.00;;;36.40;;
15792;SDS011;7999;51.208;4.244;2024-03-08T08:59:53;41.65;;;37.15;;
15792;SDS011;7999;51.208;4.244;2024-03-08T09:02:23;40.75;;;36.35;;
15792;SDS011;7999;51.208;4.244;2024-03-08T09:04:51;38.22;;;33.53;;
15792;SDS011;7999;51.208;4.244;2024-03-08T09:07:18;39.75;;;35.60;;
15792;SDS011;7999;51.208;4.244;2024-03-08T09:09:45;41.53;;;37.33;;
15792;SDS011;7999;51.208;4.244;2024-03-08T09:12:12;40.85;;;36.70;;
15792;SDS011;7999;51.208;4.244;2024-03-08T09:14:39;40.42;;;36.25;;
15792;SDS011;7999;51.208;4.244;2024-03-08T09:17:06;39.45;;;35.55;;
15792;SDS011;7999;51.208;4.244;2024-03-08T09:19:35;40.45;;;36.15;;
15792;SDS011;7999;51.208;4.244;2024-03-08T09:22:03;41.47;;;37.10;;
15792;SDS011;7999;51.208;4.244;2024-03-08T09:24:30;36.00;;;32.30;;
15792;SDS011;7999;51.208;4.244;2024-03-08T09:26:57;39.58;;;35.47;;
15792;SDS011;7999;51.208;4.244;2024-03-08T09:29:25;41.17;;;36.97;;
15792;SDS011;7999;51.208;4.244;2024-03-08T09:31:52;37.78;;;34.08;;
15792;SDS011;7999;51.208;4.244;2024-03-08T09:34:19;38.80;;;34.83;;
15792;SDS011;7999;51.208;4.244;2024-03-08T09:36:47;37.85;;;34.05;;
15792;SDS011;7999;51.208;4.244;2024-03-08T09:39:17;38.67;;;34.70;;
15792;SDS011;7999;51.208;4.244;2024-03-08T09:41:46;39.13;;;35.22;;
15792;SDS011;7999;51.208;4.244;2024-03-08T09:44:14;33.10;;;28.33;;
15792;SDS011;7999;51.208;4.244;2024-03-08T09:46:41;35.70;;;32.13;;
15792;SDS011;7999;51.208;4.244;2024-03-08T09:49:10;38.17;;;34.13;;
15792;SDS011;7999;51.208;4.244;2024-03-08T09:51:37;35.63;;;32.03;;
15792;SDS011;7999;51.208;4.244;2024-03-08T09:54:08;36.40;;;32.70;;
15792;SDS011;7999;51.208;4.244;2024-03-08T09:56:35;39.42;;;35.53;;
15792;SDS011;7999;51.208;4.244;2024-03-08T09:59:03;31.50;;;28.10;;
15792;SDS011;7999;51.208;4.244;2024-03-08T10:01:48;36.38;;;32.70;;
15792;SDS011;7999;51.208;4.244;2024-03-08T10:04:17;34.13;;;30.52;;
15792;SDS011;7999;51.208;4.244;2024-03-08T10:06:45;34.85;;;31.33;;
15792;SDS011;7999;51.208;4.244;2024-03-08T10:09:14;38.97;;;35.23;;
15792;SDS011;7999;51.208;4.244;2024-03-08T10:11:42;34.83;;;31.43;;
15792;SDS011;7999;51.208;4.244;2024-03-08T10:14:09;36.65;;;32.95;;
15792;SDS011;7999;51.208;4.244;2024-03-08T10:16:38;37.92;;;34.10;;
15792;SDS011;7999;51.208;4.244;2024-03-08T10:19:05;31.40;;;28.05;;
15792;SDS011;7999;51.208;4.244;2024-03-08T10:21:33;37.22;;;33.38;;
15792;SDS011;7999;51.208;4.244;2024-03-08T10:24:02;34.28;;;30.58;;
15792;SDS011;7999;51.208;4.244;2024-03-08T10:26:31;31.83;;;28.05;;
15792;SDS011;7999;51.208;4.244;2024-03-08T10:28:58;28.20;;;18.33;;
15792;SDS011;7999;51.208;4.244;2024-03-08T10:31:25;28.08;;;19.05;;
15792;SDS011;7999;51.208;4.244;2024-03-08T10:33:52;27.17;;;19.60;;
15792;SDS011;7999;51.208;4.244;2024-03-08T10:36:19;25.15;;;15.13;;
15792;SDS011;7999;51.208;4.244;2024-03-08T10:38:46;24.10;;;14.57;;
15792;SDS011;7999;51.208;4.244;2024-03-08T10:41:18;25.42;;;14.15;;
15792;SDS011;7999;51.208;4.244;2024-03-08T10:44:05;22.70;;;13.65;;
15792;SDS011;7999;51.208;4.244;2024-03-08T10:46:48;24.60;;;15.15;;
15792;SDS011;7999;51.208;4.244;2024-03-08T10:49:30;25.13;;;14.17;;
15792;SDS011;7999;51.208;4.244;2024-03-08T10:52:01;23.48;;;14.45;;
15792;SDS011;7999;51.208;4.244;2024-03-08T10:54:30;26.17;;;15.25;;
15792;SDS011;7999;51.208;4.244;2024-03-08T10:57:00;28.38;;;20.17;;
15792;SDS011;7999;51.208;4.244;2024-03-08T10:59:35;27.92;;;19.85;;
15792;SDS011;7999;51.208;4.244;2024-03-08T11:02:02;26.58;;;17.75;;
15792;SDS011;7999;51.208;4.244;2024-03-08T11:04:30;26.42;;;15.23;;
15792;SDS011;7999;51.208;4.244;2024-03-08T11:07:00;24.90;;;16.20;;
15792;SDS011;7999;51.208;4.244;2024-03-08T11:09:29;24.33;;;15.50;;
15792;SDS011;7999;51.208;4.244;2024-03-08T11:14:48;24.45;;;13.20;;
15792;SDS011;7999;51.208;4.244;2024-03-08T11:17:16;23.83;;;14.00;;
15792;SDS011;7999;51.208;4.244;2024-03-08T11:19:48;24.40;;;13.70;;
15792;SDS011;7999;51.208;4.244;2024-03-08T11:22:20;25.20;;;14.95;;
15792;SDS011;7999;51.208;4.244;2024-03-08T11:24:52;23.43;;;13.77;;
15792;SDS011;7999;51.208;4.244;2024-03-08T11:27:19;21.95;;;13.25;;
15792;SDS011;7999;51.208;4.244;2024-03-08T11:30:00;22.23;;;13.93;;
15792;SDS011;7999;51.208;4.244;2024-03-08T11:32:35;25.10;;;13.02;;
15792;SDS011;7999;51.208;4.244;2024-03-08T11:35:05;22.60;;;13.95;;
15792;SDS011;7999;51.208;4.244;2024-03-08T11:37:34;23.40;;;13.55;;
15792;SDS011;7999;51.208;4.244;2024-03-08T11:40:01;24.90;;;14.07;;
15792;SDS011;7999;51.208;4.244;2024-03-08T11:42:30;26.13;;;14.63;;
15792;SDS011;7999;51.208;4.244;2024-03-08T11:44:57;23.38;;;13.45;;
15792;SDS011;7999;51.208;4.244;2024-03-08T11:47:25;24.25;;;13.18;;
15792;SDS011;7999;51.208;4.244;2024-03-08T11:49:53;24.03;;;14.23;;
15792;SDS011;7999;51.208;4.244;2024-03-08T11:52:20;24.10;;;14.23;;
15792;SDS011;7999;51.208;4.244;2024-03-08T11:54:51;24.95;;;14.23;;
15792;SDS011;7999;51.208;4.244;2024-03-08T11:57:23;25.23;;;13.80;;
15792;SDS011;7999;51.208;4.244;2024-03-08T11:59:51;22.75;;;13.95;;
15792;SDS011;7999;51.208;4.244;2024-03-08T12:02:18;23.27;;;13.55;;
15792;SDS011;7999;51.208;4.244;2024-03-08T12:04:46;23.60;;;14.10;;
15792;SDS011;7999;51.208;4.244;2024-03-08T12:07:14;24.98;;;15.43;;
15792;SDS011;7999;51.208;4.244;2024-03-08T12:09:44;25.23;;;14.55;;
15792;SDS011;7999;51.208;4.244;2024-03-08T12:12:37;26.45;;;14.10;;
15792;SDS011;7999;51.208;4.244;2024-03-08T12:15:07;25.63;;;13.90;;
15792;SDS011;7999;51.208;4.244;2024-03-08T12:17:36;24.45;;;14.07;;
15792;SDS011;7999;51.208;4.244;2024-03-08T12:20:12;26.83;;;15.32;;
15792;SDS011;7999;51.208;4.244;2024-03-08T12:22:42;23.50;;;13.53;;
15792;SDS011;7999;51.208;4.244;2024-03-08T12:25:09;23.47;;;14.07;;
15792;SDS011;7999;51.208;4.244;2024-03-08T12:27:38;25.37;;;14.47;;
15792;SDS011;7999;51.208;4.244;2024-03-08T12:30:15;27.25;;;14.85;;
15792;SDS011;7999;51.208;4.244;2024-03-08T12:32:48;24.23;;;13.60;;
15792;SDS011;7999;51.208;4.244;2024-03-08T12:35:20;21.63;;;11.98;;
15792;SDS011;7999;51.208;4.244;2024-03-08T12:37:48;24.52;;;14.20;;
15792;SDS011;7999;51.208;4.244;2024-03-08T12:40:17;24.27;;;13.40;;
15792;SDS011;7999;51.208;4.244;2024-03-08T12:42:44;22.85;;;13.48;;
15792;SDS011;7999;51.208;4.244;2024-03-08T12:45:13;27.42;;;14.73;;
15792;SDS011;7999;51.208;4.244;2024-03-08T12:47:40;23.98;;;13.40;;
15792;SDS011;7999;51.208;4.244;2024-03-08T12:50:09;24.73;;;15.05;;
15792;SDS011;7999;51.208;4.244;2024-03-08T12:52:38;26.23;;;14.23;;
15792;SDS011;7999;51.208;4.244;2024-03-08T12:55:05;22.60;;;12.95;;
15792;SDS011;7999;51.208;4.244;2024-03-08T12:57:33;25.80;;;13.90;;
15792;SDS011;7999;51.208;4.244;2024-03-08T13:00:03;24.05;;;14.20;;
15792;SDS011;7999;51.208;4.244;2024-03-08T13:02:37;23.58;;;13.30;;
15792;SDS011;7999;51.208;4.244;2024-03-08T13:05:05;24.50;;;13.55;;
15792;SDS011;7999;51.208;4.244;2024-03-08T13:07:38;27.23;;;14.20;;
15792;SDS011;7999;51.208;4.244;2024-03-08T13:10:06;23.08;;;13.65;;
15792;SDS011;7999;51.208;4.244;2024-03-08T13:12:34;25.77;;;13.90;;
15792;SDS011;7999;51.208;4.244;2024-03-08T13:15:04;23.38;;;13.45;;
15792;SDS011;7999;51.208;4.244;2024-03-08T13:17:31;23.17;;;13.60;;
15792;SDS011;7999;51.208;4.244;2024-03-08T13:19:58;24.70;;;14.05;;
15792;SDS011;7999;51.208;4.244;2024-03-08T13:22:25;23.98;;;14.77;;
15792;SDS011;7999;51.208;4.244;2024-03-08T13:24:55;26.90;;;17.33;;
15792;SDS011;7999;51.208;4.244;2024-03-08T13:27:22;25.17;;;14.27;;
15792;SDS011;7999;51.208;4.244;2024-03-08T13:29:50;26.93;;;14.83;;
15792;SDS011;7999;51.208;4.244;2024-03-08T13:32:17;25.00;;;14.52;;
15792;SDS011;7999;51.208;4.244;2024-03-08T13:34:45;26.48;;;12.43;;
15792;SDS011;7999;51.208;4.244;2024-03-08T13:37:16;22.90;;;13.48;;
15792;SDS011;7999;51.208;4.244;2024-03-08T13:39:43;22.83;;;13.02;;
15792;SDS011;7999;51.208;4.244;2024-03-08T13:42:12;26.15;;;14.30;;
15792;SDS011;7999;51.208;4.244;2024-03-08T13:44:45;25.95;;;14.55;;
15792;SDS011;7999;51.208;4.244;2024-03-08T13:47:12;22.95;;;12.90;;
15792;SDS011;7999;51.208;4.244;2024-03-08T13:49:40;23.25;;;13.90;;
15792;SDS011;7999;51.208;4.244;2024-03-08T13:52:08;23.60;;;14.15;;
15792;SDS011;7999;51.208;4.244;2024-03-08T13:54:36;24.60;;;14.87;;
15792;SDS011;7999;51.208;4.244;2024-03-08T13:57:07;24.33;;;13.77;;
15792;SDS011;7999;51.208;4.244;2024-03-08T13:59:35;24.60;;;14.38;;
15792;SDS011;7999;51.208;4.244;2024-03-08T14:02:03;25.02;;;14.45;;
15792;SDS011;7999;51.208;4.244;2024-03-08T14:04:30;24.70;;;14.63;;
15792;SDS011;7999;51.208;4.244;2024-03-08T14:06:58;24.80;;;13.00;;
15792;SDS011;7999;51.208;4.244;2024-03-08T14:09:29;25.90;;;14.02;;
15792;SDS011;7999;51.208;4.244;2024-03-08T14:11:56;26.23;;;15.07;;
15792;SDS011;7999;51.208;4.244;2024-03-08T14:14:24;24.75;;;14.50;;
15792;SDS011;7999;51.208;4.244;2024-03-08T14:16:52;25.63;;;14.80;;
15792;SDS011;7999;51.208;4.244;2024-03-08T14:19:20;23.37;;;13.43;;
15792;SDS011;7999;51.208;4.244;2024-03-08T14:21:47;25.30;;;14.13;;
15792;SDS011;7999;51.208;4.244;2024-03-08T14:24:15;23.55;;;14.20;;
15792;SDS011;7999;51.208;4.244;2024-03-08T14:26:42;23.67;;;14.00;;
15792;SDS011;7999;51.208;4.244;2024-03-08T14:29:09;24.20;;;14.27;;
15792;SDS011;7999;51.208;4.244;2024-03-08T14:31:37;23.60;;;14.07;;
15792;SDS011;7999;51.208;4.244;2024-03-08T14:34:05;24.48;;;13.70;;
15792;SDS011;7999;51.208;4.244;2024-03-08T14:36:32;24.35;;;13.73;;
15792;SDS011;7999;51.208;4.244;2024-03-08T14:38:59;22.17;;;12.75;;
15792;SDS011;7999;51.208;4.244;2024-03-08T14:41:26;21.50;;;12.73;;
15792;SDS011;7999;51.208;4.244;2024-03-08T14:43:54;22.70;;;13.30;;
15792;SDS011;7999;51.208;4.244;2024-03-08T14:46:22;23.92;;;13.57;;
15792;SDS011;7999;51.208;4.244;2024-03-08T14:48:49;23.77;;;13.40;;
15792;SDS011;7999;51.208;4.244;2024-03-08T14:51:19;24.13;;;13.13;;
15792;SDS011;7999;51.208;4.244;2024-03-08T14:53:47;21.77;;;13.35;;
15792;SDS011;7999;51.208;4.244;2024-03-08T14:56:15;23.85;;;13.73;;
15792;SDS011;7999;51.208;4.244;2024-03-08T14:58:43;21.27;;;12.45;;